Time;durP1;ratioP1;P1;durP2;ratioP2;P2;SDS_P1;SDS_P2;PMS_P1;PMS_P2;Temp;Humidity;BMP_temperature;BMP_pressure;BME280_temperature;BME280_humidity;BME280_pressure;Samples;Min_cycle;Max_cycle;Signal;HPM_P1;HPM_P2
2023/03/10 00:00:47;;;;;;;33.92;22.15;;;2.10;99.90;;;;;;5089740;28;20408;-92
2023/03/10 00:03:13;;;;;;;31.73;21.27;;;2.10;99.90;;;;;;5090481;28;20396;-92
2023/03/10 00:05:39;;;;;;;29.97;20.60;;;2.10;99.90;;;;;;5089821;28;20407;-92
2023/03/10 00:08:05;;;;;;;30.07;20.73;;;2.00;99.90;;;;;;5089657;28;20408;-91
2023/03/10 00:10:31;;;;;;;28.85;21.35;;;2.00;99.90;;;;;;5090177;28;20409;-92
2023/03/10 00:12:57;;;;;;;28.02;20.15;;;2.10;99.90;;;;;;5089459;28;20899;-92
2023/03/10 00:15:23;;;;;;;28.90;20.20;;;2.00;99.90;;;;;;5090069;28;20441;-90
2023/03/10 00:17:49;;;;;;;27.38;19.42;;;2.10;99.90;;;;;;5088785;28;20429;-90
2023/03/10 00:20:15;;;;;;;25.90;19.30;;;2.10;99.90;;;;;;5090036;28;20945;-90
2023/03/10 00:22:40;;;;;;;29.05;20.08;;;2.10;99.90;;;;;;5089111;28;20464;-88
2023/03/10 00:25:07;;;;;;;28.33;19.67;;;2.10;99.90;;;;;;5089512;28;20400;-90
2023/03/10 00:27:33;;;;;;;26.52;19.45;;;2.10;99.90;;;;;;5088535;28;20424;-89
2023/03/10 00:29:59;;;;;;;27.83;19.87;;;2.10;99.90;;;;;;5089189;28;20404;-91
2023/03/10 00:32:25;;;;;;;28.20;20.13;;;2.10;99.90;;;;;;5089079;28;20458;-92
2023/03/10 00:34:50;;;;;;;30.57;21.63;;;2.10;99.90;;;;;;5088839;28;20400;-91
2023/03/10 00:37:17;;;;;;;30.00;21.40;;;2.10;99.90;;;;;;5089752;28;20392;-91
2023/03/10 00:39:43;;;;;;;31.70;22.38;;;2.10;99.90;;;;;;5088762;28;20397;-90
2023/03/10 00:42:09;;;;;;;32.13;22.77;;;2.10;99.90;;;;;;5089549;28;20466;-90
2023/03/10 00:44:35;;;;;;;32.03;23.63;;;2.10;99.90;;;;;;5089176;28;20902;-90
2023/03/10 00:47:01;;;;;;;34.60;24.57;;;2.10;99.90;;;;;;5088764;28;20511;-91
2023/03/10 00:49:26;;;;;;;33.60;24.67;;;2.10;99.90;;;;;;5089619;28;20444;-91
2023/03/10 00:51:52;;;;;;;34.90;24.90;;;2.10;99.90;;;;;;5088918;28;20432;-92
2023/03/10 00:54:18;;;;;;;36.33;26.00;;;2.10;99.90;;;;;;5088649;28;20392;-90
2023/03/10 00:56:44;;;;;;;36.47;26.48;;;2.10;99.90;;;;;;5088662;28;20463;-91
2023/03/10 00:59:10;;;;;;;36.95;27.33;;;2.30;99.90;;;;;;5089346;28;20405;-91
2023/03/10 01:01:40;;;;;;;38.05;27.23;;;2.20;99.90;;;;;;5088635;28;20410;-91
2023/03/10 01:04:08;;;;;;;36.30;26.93;;;2.30;99.90;;;;;;5088791;28;20404;-92
2023/03/10 01:06:35;;;;;;;35.33;27.20;;;2.20;99.90;;;;;;5089268;28;20431;-91
2023/03/10 01:09:02;;;;;;;37.53;27.27;;;2.20;99.90;;;;;;5088380;28;20404;-90
2023/03/10 01:11:29;;;;;;;39.13;28.20;;;2.20;99.90;;;;;;5089269;28;20403;-91
2023/03/10 01:13:57;;;;;;;39.80;28.23;;;2.40;99.90;;;;;;5088497;28;20446;-90
2023/03/10 01:16:23;;;;;;;39.67;28.70;;;2.20;99.90;;;;;;5089555;28;20408;-91
2023/03/10 01:18:49;;;;;;;38.08;28.55;;;2.20;99.90;;;;;;5088137;28;20396;-91
2023/03/10 01:21:18;;;;;;;38.67;28.77;;;2.20;99.90;;;;;;5105887;28;20404;-90
2023/03/10 01:23:43;;;;;;;31.70;24.57;;;2.20;99.90;;;;;;5088900;28;20417;-91
2023/03/10 01:26:09;;;;;;;29.50;22.87;;;2.20;99.90;;;;;;5088428;28;20416;-90
2023/03/10 01:28:34;;;;;;;29.70;22.47;;;2.20;99.90;;;;;;5089429;28;20412;-89
2023/03/10 01:31:00;;;;;;;28.70;22.65;;;2.20;99.90;;;;;;5088257;28;20499;-92
2023/03/10 01:33:26;;;;;;;29.87;23.10;;;2.20;99.90;;;;;;5105925;28;20404;-89
2023/03/10 01:35:51;;;;;;;36.23;26.23;;;2.20;99.90;;;;;;5088128;28;20405;-90
2023/03/10 01:38:17;;;;;;;33.80;24.83;;;2.30;99.90;;;;;;5089328;28;20526;-91
2023/03/10 01:40:48;;;;;;;32.58;23.75;;;2.30;99.90;;;;;;5105087;28;20741;-91
2023/03/10 01:43:18;;;;;;;29.20;21.25;;;2.30;99.90;;;;;;5088540;28;20397;-89
2023/03/10 01:45:44;;;;;;;29.42;21.23;;;2.30;99.90;;;;;;5084732;28;20456;-91
2023/03/10 01:48:10;;;;;;;27.93;19.83;;;2.30;99.90;;;;;;5068009;28;20403;-90
2023/03/10 01:50:35;;;;;;;25.63;19.00;;;2.30;99.90;;;;;;5068765;28;20394;-91
2023/03/10 01:53:01;;;;;;;22.63;18.00;;;2.40;99.90;;;;;;5068141;28;20402;-90
2023/03/10 01:55:32;;;;;;;26.52;19.08;;;2.40;99.90;;;;;;5068726;28;20493;-90
2023/03/10 01:57:58;;;;;;;25.77;19.38;;;2.40;99.90;;;;;;5068126;28;20480;-89
2023/03/10 02:00:25;;;;;;;24.55;18.58;;;2.20;99.90;;;;;;5068396;28;20472;-89
2023/03/10 02:03:06;;;;;;;26.02;19.38;;;2.40;99.90;;;;;;5068731;28;20776;-90
2023/03/10 02:05:39;;;;;;;24.70;18.52;;;2.40;99.90;;;;;;5070351;28;20442;-91
2023/03/10 02:08:05;;;;;;;24.60;18.80;;;2.30;99.90;;;;;;5071889;28;20414;-89
2023/03/10 02:10:32;;;;;;;22.83;17.75;;;2.30;99.90;;;;;;5070742;28;20414;-91
2023/03/10 02:12:57;;;;;;;24.80;18.20;;;2.30;99.90;;;;;;5071673;28;20986;-91
2023/03/10 02:15:23;;;;;;;24.30;18.03;;;2.30;99.90;;;;;;5071472;28;20406;-93
2023/03/10 02:17:50;;;;;;;23.20;17.80;;;2.30;99.90;;;;;;5072004;28;20414;-90
2023/03/10 02:20:31;;;;;;;23.60;17.50;;;2.20;99.90;;;;;;5088725;28;20465;-90
2023/03/10 02:22:56;;;;;;;25.10;18.47;;;2.20;99.90;;;;;;5071336;28;20917;-91
2023/03/10 02:25:42;;;;;;;25.17;18.17;;;2.10;99.90;;;;;;5071592;28;20434;-91
2023/03/10 02:28:08;;;;;;;23.95;18.50;;;2.10;99.90;;;;;;5071449;28;20414;-92
2023/03/10 02:30:41;;;;;;;25.53;18.60;;;2.10;99.90;;;;;;5088612;28;20460;-92
2023/03/10 02:33:12;;;;;;;24.67;18.25;;;2.10;99.90;;;;;;5070562;28;20788;-90
2023/03/10 02:35:38;;;;;;;27.73;19.57;;;2.10;99.90;;;;;;5069841;28;20436;-91
2023/03/10 02:38:04;;;;;;;25.58;18.75;;;2.00;99.90;;;;;;5070307;28;20414;-89
2023/03/10 02:40:48;;;;;;;27.48;19.88;;;2.00;99.90;;;;;;5069636;28;20416;-91
2023/03/10 02:43:25;;;;;;;27.38;19.50;;;2.00;99.90;;;;;;5070657;28;20410;-93
2023/03/10 02:45:54;;;;;;;27.73;19.42;;;2.00;99.90;;;;;;5069975;28;20414;-92
2023/03/10 02:48:28;;;;;;;30.17;20.10;;;2.10;99.90;;;;;;5070237;28;20526;-92
2023/03/10 02:50:55;;;;;;;27.08;19.25;;;2.00;99.90;;;;;;5071250;28;20398;-92
2023/03/10 02:53:24;;;;;;;25.58;19.17;;;2.00;99.90;;;;;;5070344;28;20482;-92
2023/03/10 02:55:50;;;;;;;27.77;19.15;;;1.90;99.90;;;;;;5071068;28;20430;-92
2023/03/10 02:58:16;;;;;;;27.67;19.42;;;2.00;99.90;;;;;;5069141;28;20414;-89
2023/03/10 03:00:44;;;;;;;25.58;18.40;;;1.90;99.90;;;;;;5070345;28;20409;-92
2023/03/10 03:03:11;;;;;;;27.08;18.88;;;1.90;99.90;;;;;;5069427;28;20486;-92
2023/03/10 03:05:37;;;;;;;25.30;18.20;;;1.90;99.90;;;;;;5070296;28;20393;-91
2023/03/10 03:08:05;;;;;;;26.10;18.35;;;2.00;99.90;;;;;;5070770;28;20410;-89
2023/03/10 03:10:31;;;;;;;29.33;19.58;;;1.90;99.90;;;;;;5070667;28;20463;-91
2023/03/10 03:12:56;;;;;;;26.95;19.05;;;1.90;99.90;;;;;;5071129;28;20925;-93
2023/03/10 03:15:23;;;;;;;28.45;20.08;;;1.90;99.90;;;;;;5086233;28;20444;-92
2023/03/10 03:17:49;;;;;;;28.42;19.60;;;1.90;99.90;;;;;;5071180;28;21038;-91
2023/03/10 03:20:15;;;;;;;28.42;19.38;;;1.90;99.90;;;;;;5087006;28;20394;-91
2023/03/10 03:22:41;;;;;;;31.17;20.98;;;2.00;99.90;;;;;;5070308;28;20403;-93
2023/03/10 03:25:08;;;;;;;30.90;21.05;;;1.90;99.90;;;;;;5070684;28;20394;-92
2023/03/10 03:27:34;;;;;;;32.97;21.90;;;1.90;99.90;;;;;;5069771;28;20429;-91
2023/03/10 03:30:00;;;;;;;34.22;22.35;;;1.90;99.90;;;;;;5070299;28;20402;-91
2023/03/10 03:32:26;;;;;;;32.97;23.30;;;1.90;99.90;;;;;;5069848;28;20467;-93
2023/03/10 03:34:52;;;;;;;33.23;23.83;;;1.90;99.90;;;;;;5070420;28;20430;-92
2023/03/10 03:37:17;;;;;;;35.70;23.83;;;1.90;99.90;;;;;;5069581;28;20901;-93
2023/03/10 03:39:43;;;;;;;37.05;24.83;;;1.80;99.90;;;;;;5071071;28;20410;-90
2023/03/10 03:42:08;;;;;;;37.73;24.17;;;1.80;99.90;;;;;;5069744;28;20444;-92
2023/03/10 03:44:34;;;;;;;35.80;25.13;;;1.80;99.90;;;;;;5070089;28;20394;-92
2023/03/10 03:47:00;;;;;;;36.77;25.73;;;1.80;99.90;;;;;;5070317;28;20534;-91
2023/03/10 03:49:25;;;;;;;37.92;25.27;;;1.80;99.90;;;;;;5069637;28;20406;-91
2023/03/10 03:51:51;;;;;;;39.83;25.98;;;1.80;99.90;;;;;;5069822;28;20835;-91
2023/03/10 03:54:17;;;;;;;43.23;26.27;;;1.80;99.90;;;;;;5086197;28;20442;-92
2023/03/10 03:56:42;;;;;;;41.30;26.63;;;1.70;99.90;;;;;;5070108;28;20402;-95
2023/03/10 03:59:08;;;;;;;39.00;26.13;;;1.70;99.90;;;;;;5086082;28;20402;-92
2023/03/10 04:01:34;;;;;;;42.13;26.38;;;1.80;99.90;;;;;;5069295;28;20402;-93
2023/03/10 04:03:59;;;;;;;42.40;26.58;;;1.80;99.90;;;;;;5086662;28;20406;-91
2023/03/10 04:06:25;;;;;;;42.50;26.67;;;1.60;99.90;;;;;;5069456;28;20864;-91
2023/03/10 04:08:51;;;;;;;41.57;26.70;;;1.70;99.90;;;;;;5069741;28;21192;-93
2023/03/10 04:11:16;;;;;;;44.73;27.40;;;2.00;99.90;;;;;;5069215;28;20448;-92
2023/03/10 04:13:42;;;;;;;43.77;27.03;;;1.60;99.90;;;;;;5070077;28;20473;-89
2023/03/10 04:16:08;;;;;;;45.22;28.10;;;1.60;99.90;;;;;;5069007;28;20805;-95
2023/03/10 04:18:34;;;;;;;43.90;28.20;;;1.60;99.90;;;;;;5086659;28;20398;-91
2023/03/10 04:21:00;;;;;;;45.33;28.30;;;1.60;99.90;;;;;;5068952;28;20572;-93
2023/03/10 04:23:25;;;;;;;42.20;27.00;;;1.60;99.90;;;;;;5068824;28;20975;-92
2023/03/10 04:25:51;;;;;;;46.67;28.50;;;1.60;99.90;;;;;;5069811;28;21204;-92
2023/03/10 04:28:17;;;;;;;48.33;28.60;;;1.60;99.90;;;;;;5068740;28;20468;-92
2023/03/10 04:30:44;;;;;;;46.23;27.93;;;1.60;99.90;;;;;;5069588;28;20406;-90
2023/03/10 04:33:10;;;;;;;44.75;28.05;;;1.70;99.90;;;;;;5068653;28;20467;-91
2023/03/10 04:35:46;;;;;;;45.95;28.17;;;1.60;99.90;;;;;;5086512;28;20414;-91
2023/03/10 04:38:12;;;;;;;44.20;27.40;;;1.70;99.90;;;;;;5068992;28;20425;-93
2023/03/10 04:40:38;;;;;;;45.03;28.55;;;1.60;99.90;;;;;;5068984;28;20904;-91
2023/03/10 04:43:03;;;;;;;42.80;27.40;;;1.60;99.90;;;;;;5069170;28;20485;-92
2023/03/10 04:45:29;;;;;;;43.30;27.37;;;1.40;99.90;;;;;;5068223;28;20793;-91
2023/03/10 04:47:55;;;;;;;44.60;28.00;;;1.60;99.90;;;;;;5069033;28;20460;-92
2023/03/10 04:50:21;;;;;;;43.30;27.02;;;1.70;99.90;;;;;;5067981;28;20439;-91
2023/03/10 04:52:48;;;;;;;44.72;27.40;;;1.60;99.90;;;;;;5086044;28;20406;-92
2023/03/10 04:55:14;;;;;;;48.65;28.20;;;1.60;99.90;;;;;;5068346;28;20447;-93
2023/03/10 04:57:40;;;;;;;46.40;28.43;;;2.00;99.90;;;;;;5068807;28;20414;-92
2023/03/10 05:00:08;;;;;;;50.57;29.60;;;1.60;99.90;;;;;;5068651;28;20403;-92
2023/03/10 05:02:34;;;;;;;50.33;29.65;;;1.60;99.90;;;;;;5069091;28;20395;-93
2023/03/10 05:05:00;;;;;;;53.95;30.00;;;1.50;99.90;;;;;;5069523;28;20787;-91
2023/03/10 05:07:27;;;;;;;51.55;29.73;;;1.60;99.90;;;;;;5067940;28;20477;-92
2023/03/10 05:09:53;;;;;;;54.70;32.00;;;1.60;99.90;;;;;;5068991;28;20394;-92
2023/03/10 05:12:18;;;;;;;58.20;31.98;;;1.50;99.90;;;;;;5068181;28;20417;-90
2023/03/10 05:14:44;;;;;;;62.40;33.50;;;1.60;99.90;;;;;;5068825;28;20497;-91
2023/03/10 05:17:10;;;;;;;64.77;34.10;;;1.60;99.90;;;;;;5068599;28;20451;-91
2023/03/10 05:19:37;;;;;;;66.72;35.33;;;1.50;99.90;;;;;;5086910;28;20485;-91
2023/03/10 05:22:04;;;;;;;65.93;35.00;;;1.60;99.90;;;;;;5068612;28;20451;-91
2023/03/10 05:24:30;;;;;;;72.50;37.10;;;1.50;99.90;;;;;;5068539;28;20400;-93
2023/03/10 05:26:56;;;;;;;73.75;37.53;;;1.50;99.90;;;;;;5068315;28;20493;-91
2023/03/10 05:29:22;;;;;;;79.45;39.80;;;1.50;99.90;;;;;;5067763;28;20652;-91
2023/03/10 05:31:47;;;;;;;76.07;39.37;;;1.50;99.90;;;;;;5068056;28;20449;-90
2023/03/10 05:34:13;;;;;;;85.03;41.80;;;1.50;99.90;;;;;;5067285;28;20447;-91
2023/03/10 05:36:40;;;;;;;89.33;42.67;;;1.50;99.90;;;;;;5084829;28;20508;-92
2023/03/10 05:39:06;;;;;;;84.30;42.25;;;1.40;99.90;;;;;;5085547;28;20410;-88
2023/03/10 05:41:32;;;;;;;96.13;44.67;;;1.50;99.90;;;;;;5075874;28;20431;-92
2023/03/10 05:43:58;;;;;;;91.50;44.47;;;1.60;99.90;;;;;;5072686;28;20413;-93
2023/03/10 05:46:24;;;;;;;92.00;44.30;;;1.50;99.90;;;;;;5071410;28;20430;-93
2023/03/10 05:48:50;;;;;;;88.38;44.17;;;1.50;99.90;;;;;;5072672;28;20485;-92
2023/03/10 05:51:15;;;;;;;85.18;42.67;;;1.50;99.90;;;;;;5071498;28;20444;-93
2023/03/10 05:53:42;;;;;;;86.15;43.47;;;1.50;99.90;;;;;;5089047;28;20459;-94
2023/03/10 05:56:10;;;;;;;85.10;42.63;;;1.50;99.90;;;;;;5071344;28;20415;-96
2023/03/10 05:58:36;;;;;;;79.45;39.95;;;1.40;99.90;;;;;;5088748;28;20394;-92
2023/03/10 06:01:02;;;;;;;82.75;41.15;;;1.60;99.90;;;;;;5072311;28;20919;-90
2023/03/10 06:03:28;;;;;;;79.55;40.58;;;1.50;99.90;;;;;;5071857;28;20446;-93
2023/03/10 06:05:55;;;;;;;87.87;40.90;;;1.50;99.90;;;;;;5072101;28;20466;-94
2023/03/10 06:08:22;;;;;;;80.27;40.00;;;1.50;99.90;;;;;;5087858;28;20426;-94
2023/03/10 06:10:48;;;;;;;72.07;37.50;;;1.60;99.90;;;;;;5072449;28;20929;-93
2023/03/10 06:13:18;;;;;;;76.07;37.00;;;1.40;99.90;;;;;;5071721;28;20402;-91
2023/03/10 06:15:54;;;;;;;78.38;36.88;;;1.40;99.90;;;;;;5071457;28;20403;-88
2023/03/10 06:18:20;;;;;;;72.20;35.88;;;1.40;99.90;;;;;;5073037;28;20398;-91
2023/03/10 06:20:48;;;;;;;67.10;34.10;;;1.30;99.90;;;;;;5091377;28;20479;-89
2023/03/10 06:23:15;;;;;;;70.40;34.42;;;1.20;99.90;;;;;;5092170;28;20407;-92
2023/03/10 06:25:41;;;;;;;70.45;33.83;;;1.50;99.90;;;;;;5090774;28;20475;-90
2023/03/10 06:28:07;;;;;;;65.43;32.13;;;1.40;99.90;;;;;;5082778;28;20490;-90
2023/03/10 06:30:33;;;;;;;65.47;31.27;;;1.40;99.90;;;;;;5070510;28;20896;-90
2023/03/10 06:32:59;;;;;;;56.97;29.55;;;1.40;99.90;;;;;;5069819;28;20910;-89
2023/03/10 06:35:26;;;;;;;62.00;30.50;;;1.40;99.90;;;;;;5087745;28;20444;-89
2023/03/10 06:37:52;;;;;;;60.10;29.92;;;1.40;99.90;;;;;;5070634;28;20398;-90
2023/03/10 06:40:18;;;;;;;61.60;30.00;;;1.40;99.90;;;;;;5070318;28;20485;-87
2023/03/10 06:42:43;;;;;;;58.70;29.60;;;1.40;99.90;;;;;;5069117;28;20406;-89
2023/03/10 06:45:13;;;;;;;61.63;29.93;;;1.40;99.90;;;;;;5071029;28;20429;-89
2023/03/10 06:47:39;;;;;;;53.78;28.00;;;1.40;99.90;;;;;;5070144;28;20432;-91
2023/03/10 06:50:05;;;;;;;60.80;29.55;;;1.40;99.90;;;;;;5071167;28;20497;-92
2023/03/10 06:52:33;;;;;;;52.60;27.70;;;1.40;99.90;;;;;;5070959;28;20435;-89
2023/03/10 06:54:59;;;;;;;56.38;29.23;;;1.50;99.90;;;;;;5087449;28;20438;-91
2023/03/10 06:57:25;;;;;;;57.75;28.88;;;1.50;99.90;;;;;;5071310;28;20664;-90
2023/03/10 06:59:50;;;;;;;49.60;27.83;;;1.50;99.90;;;;;;5070537;28;20509;-90
2023/03/10 07:02:18;;;;;;;55.20;29.23;;;1.50;99.90;;;;;;5087693;28;20397;-91
2023/03/10 07:04:45;;;;;;;58.35;29.95;;;1.60;99.90;;;;;;5069890;28;20394;-90
2023/03/10 07:07:12;;;;;;;56.22;30.27;;;1.60;99.90;;;;;;5087619;28;20434;-92
2023/03/10 07:09:37;;;;;;;51.03;29.70;;;1.60;99.90;;;;;;5070222;28;20400;-90
2023/03/10 07:12:03;;;;;;;52.42;30.60;;;2.00;99.90;;;;;;5070574;28;20501;-89
2023/03/10 07:14:29;;;;;;;50.60;29.92;;;1.70;99.90;;;;;;5070857;28;20488;-88
2023/03/10 07:16:55;;;;;;;51.22;30.33;;;1.90;99.90;;;;;;5070207;28;20410;-90
2023/03/10 07:19:21;;;;;;;47.13;29.27;;;1.90;99.90;;;;;;5070805;28;20410;-91
2023/03/10 07:21:46;;;;;;;55.10;31.00;;;2.00;99.90;;;;;;5069893;28;20437;-91
2023/03/10 07:24:12;;;;;;;44.53;28.60;;;2.10;99.90;;;;;;5070681;28;20441;-94
2023/03/10 07:26:38;;;;;;;44.27;27.53;;;2.10;99.90;;;;;;5086616;28;20422;-89
2023/03/10 07:29:03;;;;;;;44.47;27.43;;;2.20;99.90;;;;;;5070441;28;20449;-91
2023/03/10 07:31:29;;;;;;;37.30;24.87;;;2.00;99.90;;;;;;5070271;28;20444;-93
2023/03/10 07:33:55;;;;;;;34.90;24.00;;;2.30;99.90;;;;;;5069737;28;20398;-91
2023/03/10 07:36:21;;;;;;;38.15;25.65;;;2.40;99.90;;;;;;5070268;28;20463;-90
2023/03/10 07:38:48;;;;;;;37.50;24.90;;;2.30;99.90;;;;;;5069813;28;20465;-90
2023/03/10 07:41:17;;;;;;;36.97;24.63;;;2.40;99.90;;;;;;5086894;28;20434;-91
2023/03/10 07:43:43;;;;;;;36.70;24.25;;;2.60;99.90;;;;;;5069735;28;20442;-92
2023/03/10 07:46:12;;;;;;;30.95;22.70;;;2.50;99.90;;;;;;5070267;28;21229;-91
2023/03/10 07:48:38;;;;;;;32.95;22.98;;;2.50;99.90;;;;;;5069895;28;20881;-93
2023/03/10 07:51:04;;;;;;;33.20;23.20;;;2.50;99.90;;;;;;5069741;28;20406;-91
2023/03/10 07:53:30;;;;;;;30.42;21.77;;;2.50;99.90;;;;;;5069800;28;20463;-92
2023/03/10 07:55:56;;;;;;;32.20;21.10;;;2.40;99.90;;;;;;5069530;28;20433;-94
2023/03/10 07:58:23;;;;;;;30.98;21.05;;;2.40;99.90;;;;;;5070245;28;20445;-92
2023/03/10 08:00:56;;;;;;;32.10;21.33;;;2.50;99.90;;;;;;5068975;28;20409;-90
2023/03/10 08:03:22;;;;;;;32.95;21.30;;;2.30;99.90;;;;;;5069664;28;20573;-90
2023/03/10 08:05:48;;;;;;;29.10;20.27;;;2.20;99.90;;;;;;5068571;28;20441;-92
2023/03/10 08:08:14;;;;;;;31.42;21.05;;;2.40;99.90;;;;;;5069801;28;20418;-91
2023/03/10 08:10:39;;;;;;;32.67;21.48;;;2.20;99.90;;;;;;5069268;28;20404;-91
2023/03/10 08:13:05;;;;;;;32.03;21.88;;;2.20;99.90;;;;;;5069495;28;20402;-89
2023/03/10 08:15:31;;;;;;;33.07;22.37;;;2.20;99.90;;;;;;5069657;28;20410;-90
2023/03/10 08:17:57;;;;;;;32.88;22.60;;;2.20;99.90;;;;;;5086188;28;20427;-91
2023/03/10 08:20:23;;;;;;;35.65;23.67;;;2.20;99.90;;;;;;5069599;28;20440;-93
2023/03/10 08:22:51;;;;;;;35.17;23.73;;;2.30;99.90;;;;;;5068813;28;20448;-91
2023/03/10 08:25:17;;;;;;;34.55;23.42;;;2.40;99.90;;;;;;5069929;28;20397;-89
2023/03/10 08:27:43;;;;;;;36.67;24.60;;;2.30;99.90;;;;;;5068988;28;20770;-92
2023/03/10 08:30:09;;;;;;;35.23;24.17;;;2.40;99.90;;;;;;5069179;28;20414;-88
2023/03/10 08:32:35;;;;;;;33.38;23.13;;;2.40;99.90;;;;;;5069561;28;20951;-90
2023/03/10 08:35:03;;;;;;;31.70;23.02;;;2.50;99.90;;;;;;5068816;28;20417;-91
2023/03/10 08:37:28;;;;;;;34.55;22.83;;;2.50;99.90;;;;;;5069169;28;20406;-90
2023/03/10 08:39:55;;;;;;;33.55;24.20;;;2.50;99.90;;;;;;5068295;28;20900;-91
2023/03/10 08:42:21;;;;;;;34.22;23.50;;;2.60;99.90;;;;;;5069986;28;21016;-90
2023/03/10 08:44:47;;;;;;;36.08;24.20;;;2.60;99.90;;;;;;5068564;28;20510;-89
2023/03/10 08:47:12;;;;;;;34.23;24.53;;;2.70;99.90;;;;;;5069302;28;20515;-92
2023/03/10 08:49:38;;;;;;;36.13;25.07;;;2.60;99.90;;;;;;5069041;28;20397;-90
2023/03/10 08:52:04;;;;;;;34.63;25.15;;;2.60;99.90;;;;;;5068811;28;20410;-90
2023/03/10 08:54:30;;;;;;;35.13;25.60;;;2.60;99.90;;;;;;5069779;28;20405;-92
2023/03/10 08:56:55;;;;;;;35.72;25.48;;;2.60;99.90;;;;;;5068572;28;20401;-92
2023/03/10 08:59:21;;;;;;;33.08;24.20;;;2.60;99.90;;;;;;5086092;28;20421;-92
2023/03/10 09:01:47;;;;;;;33.10;24.30;;;2.60;99.90;;;;;;5068404;28;20449;-92
2023/03/10 09:04:12;;;;;;;32.20;23.27;;;2.70;99.90;;;;;;5069196;28;20405;-92
2023/03/10 09:06:38;;;;;;;32.80;23.25;;;2.60;99.90;;;;;;5068603;28;20463;-92
2023/03/10 09:09:06;;;;;;;33.58;23.33;;;2.60;99.90;;;;;;5085591;28;20422;-93
2023/03/10 09:11:34;;;;;;;33.60;24.20;;;2.60;99.90;;;;;;5068892;28;20399;-92
2023/03/10 09:14:00;;;;;;;34.63;24.02;;;2.60;99.90;;;;;;5068873;28;20407;-91
2023/03/10 09:16:27;;;;;;;35.55;25.90;;;2.70;99.90;;;;;;5090304;28;20394;-91
2023/03/10 09:18:56;;;;;;;37.92;28.30;;;2.90;99.90;;;;;;5072346;28;20485;-92
2023/03/10 09:21:22;;;;;;;42.08;32.72;;;2.70;99.90;;;;;;5072971;28;20402;-92
2023/03/10 09:23:51;;;;;;;33.92;25.15;;;2.70;99.90;;;;;;5072458;28;20401;-89
2023/03/10 09:26:18;;;;;;;33.10;24.73;;;2.70;99.90;;;;;;5089608;28;20970;-91
2023/03/10 09:28:46;;;;;;;35.08;26.45;;;2.70;99.90;;;;;;5072630;28;20394;-92
2023/03/10 09:31:16;;;;;;;32.03;24.00;;;2.70;99.90;;;;;;5071930;28;20410;-90
2023/03/10 09:33:42;;;;;;;32.30;24.23;;;2.70;99.90;;;;;;5072893;28;20445;-91
2023/03/10 09:36:08;;;;;;;29.77;22.00;;;3.00;99.90;;;;;;5071906;28;20464;-92
2023/03/10 09:38:35;;;;;;;30.52;22.30;;;2.70;99.90;;;;;;5072361;28;20481;-91
2023/03/10 09:41:22;;;;;;;29.05;21.35;;;2.70;99.90;;;;;;5088447;28;20397;-92
2023/03/10 09:44:01;;;;;;;29.77;21.38;;;2.70;99.90;;;;;;5071922;28;20493;-91
2023/03/10 09:46:55;;;;;;;32.20;23.27;;;2.70;99.90;;;;;;5072426;28;20437;-93
2023/03/10 09:49:37;;;;;;;32.33;23.50;;;2.70;99.90;;;;;;5065680;28;20410;-90
2023/03/10 09:52:28;;;;;;;30.70;22.63;;;2.70;99.90;;;;;;5072193;28;20604;-90
2023/03/10 09:55:05;;;;;;;29.90;22.60;;;2.70;99.90;;;;;;5104509;28;20457;-93
2023/03/10 09:57:32;;;;;;;28.48;21.17;;;2.60;99.90;;;;;;5091790;28;20420;-90
2023/03/10 10:00:04;;;;;;;28.77;20.85;;;2.60;99.90;;;;;;5092492;28;20400;-91
2023/03/10 10:02:34;;;;;;;28.80;21.35;;;2.60;99.90;;;;;;5091279;28;20487;-89
2023/03/10 10:05:05;;;;;;;31.45;21.77;;;2.60;99.90;;;;;;5092018;28;20432;-90
2023/03/10 10:07:48;;;;;;;30.13;22.23;;;2.50;99.90;;;;;;5091061;28;20424;-92
2023/03/10 10:10:23;;;;;;;32.08;23.20;;;2.50;99.90;;;;;;5090140;28;20891;-92
2023/03/10 10:12:51;;;;;;;30.25;23.15;;;2.50;99.90;;;;;;5091287;28;20408;-90
2023/03/10 10:15:27;;;;;;;31.77;23.65;;;2.40;99.90;;;;;;5090281;28;20396;-91
2023/03/10 10:18:16;;;;;;;30.20;22.73;;;2.50;99.90;;;;;;5090835;28;20729;-90
2023/03/10 10:20:52;;;;;;;31.65;23.77;;;2.50;99.90;;;;;;5091098;28;20448;-89
2023/03/10 10:23:20;;;;;;;32.80;23.70;;;2.60;99.90;;;;;;5107497;28;20435;-92
2023/03/10 10:25:45;;;;;;;31.38;23.70;;;2.50;99.90;;;;;;5090441;28;20542;-92
2023/03/10 10:28:24;;;;;;;30.00;23.43;;;2.70;99.90;;;;;;5089659;28;20516;-92
2023/03/10 10:30:50;;;;;;;31.52;22.80;;;2.70;99.90;;;;;;5085995;28;20420;-91
2023/03/10 10:33:15;;;;;;;29.92;23.48;;;2.90;99.90;;;;;;5104999;28;20397;-93
2023/03/10 10:35:57;;;;;;;29.45;23.63;;;2.80;99.90;;;;;;5106185;28;20409;-90
2023/03/10 10:38:29;;;;;;;32.28;24.85;;;2.90;99.90;;;;;;5090442;28;20907;-93
2023/03/10 10:41:14;;;;;;;30.53;24.60;;;3.00;99.90;;;;;;5089760;28;20844;-89
2023/03/10 10:43:42;;;;;;;32.40;25.42;;;3.00;99.90;;;;;;5091285;28;20400;-92
2023/03/10 10:46:09;;;;;;;33.08;25.38;;;3.00;99.90;;;;;;5106816;28;20397;-92
2023/03/10 10:48:41;;;;;;;32.78;24.65;;;3.00;99.90;;;;;;5106672;28;20405;-93
2023/03/10 10:51:26;;;;;;;34.53;25.77;;;3.00;99.90;;;;;;5090615;28;21098;-91
2023/03/10 10:53:51;;;;;;;35.15;26.65;;;3.00;99.90;;;;;;5089398;28;20495;-88
2023/03/10 10:56:18;;;;;;;32.03;25.55;;;3.00;99.90;;;;;;5090487;28;20500;-91
2023/03/10 10:58:59;;;;;;;32.70;25.65;;;3.10;99.90;;;;;;5089937;28;20823;-90
2023/03/10 11:01:25;;;;;;;33.03;26.15;;;3.10;99.90;;;;;;5090893;28;20418;-90
2023/03/10 11:04:05;;;;;;;39.13;27.80;;;3.10;99.90;;;;;;5069949;28;20414;-89
2023/03/10 11:06:33;;;;;;;36.50;28.08;;;3.10;99.90;;;;;;5069021;28;20434;-89
2023/03/10 11:09:19;;;;;;;34.80;27.30;;;3.40;99.90;;;;;;4995028;28;2134681;-91
2023/03/10 11:11:57;;;;;;;35.33;27.52;;;3.10;99.90;;;;;;5069496;28;20412;-91
2023/03/10 11:14:26;;;;;;;34.42;27.67;;;3.10;99.90;;;;;;5070535;28;21049;-91
2023/03/10 11:17:17;;;;;;;39.80;29.10;;;3.00;99.90;;;;;;5070565;28;20414;-89
2023/03/10 11:20:01;;;;;;;39.50;30.45;;;2.90;99.90;;;;;;5069554;28;20414;-91
2023/03/10 11:22:54;;;;;;;42.40;31.88;;;2.80;99.90;;;;;;5070632;28;20406;-92
2023/03/10 11:25:28;;;;;;;41.00;31.23;;;2.90;99.90;;;;;;5070219;28;20539;-90
2023/03/10 11:27:56;;;;;;;40.72;31.20;;;2.80;99.90;;;;;;5069456;28;20418;-91
2023/03/10 11:30:31;;;;;;;41.95;31.55;;;2.90;99.90;;;;;;5070596;28;20402;-93
2023/03/10 11:33:28;;;;;;;42.83;31.38;;;2.90;99.90;;;;;;5086003;28;20406;-93
2023/03/10 11:36:19;;;;;;;43.00;31.30;;;2.90;99.90;;;;;;5070600;28;20402;-90
2023/03/10 11:38:53;;;;;;;39.75;29.92;;;3.00;99.90;;;;;;5086561;28;20482;-91
2023/03/10 11:41:29;;;;;;;39.58;30.05;;;3.10;99.90;;;;;;5068997;28;20485;-89
2023/03/10 11:44:00;;;;;;;39.20;29.70;;;3.20;99.90;;;;;;5069217;28;20912;-89
2023/03/10 11:46:57;;;;;;;39.67;30.50;;;3.20;99.90;;;;;;5069282;28;20819;-89
2023/03/10 11:49:26;;;;;;;39.65;29.80;;;3.30;99.90;;;;;;5085960;28;20410;-89
2023/03/10 11:51:57;;;;;;;40.22;29.60;;;3.30;99.90;;;;;;5069913;28;20441;-90
2023/03/10 11:54:31;;;;;;;38.28;30.65;;;3.30;99.90;;;;;;5069340;28;20406;-88
2023/03/10 11:57:01;;;;;;;39.50;29.60;;;3.30;99.90;;;;;;5069738;28;20410;-91
2023/03/10 11:59:29;;;;;;;41.65;31.15;;;3.30;99.90;;;;;;5069107;28;20406;-90
2023/03/10 12:02:18;;;;;;;39.83;30.23;;;3.30;99.90;;;;;;5069922;28;20975;-91
2023/03/10 12:05:17;;;;;;;42.20;31.17;;;3.30;99.90;;;;;;5068979;28;20410;-90
2023/03/10 12:07:50;;;;;;;38.70;30.37;;;3.30;99.90;;;;;;5068359;28;20422;-91
2023/03/10 12:10:17;;;;;;;40.42;30.40;;;3.20;99.90;;;;;;5070122;28;20444;-92
2023/03/10 12:12:45;;;;;;;42.13;31.52;;;3.10;99.90;;;;;;5069481;28;20398;-91
2023/03/10 12:15:21;;;;;;;43.53;31.80;;;3.10;99.90;;;;;;5069260;28;20398;-90
2023/03/10 12:17:48;;;;;;;41.65;31.55;;;3.50;99.90;;;;;;5069567;28;20771;-89
2023/03/10 12:20:16;;;;;;;41.25;30.58;;;3.00;99.90;;;;;;5069331;28;20398;-92
2023/03/10 12:22:46;;;;;;;41.65;31.00;;;3.10;99.90;;;;;;5069409;28;20413;-90
2023/03/10 12:25:27;;;;;;;41.03;30.75;;;3.10;99.90;;;;;;5068345;28;20489;-92
2023/03/10 12:28:27;;;;;;;42.22;30.88;;;3.00;99.90;;;;;;5069255;28;20456;-88
2023/03/10 12:31:04;;;;;;;42.25;29.65;;;3.00;99.90;;;;;;5069622;28;20422;-89
2023/03/10 12:33:29;;;;;;;40.83;29.40;;;3.00;99.90;;;;;;5069166;28;20893;-89
2023/03/10 12:36:20;;;;;;;43.03;30.73;;;2.90;99.90;;;;;;5069254;28;20491;-90
2023/03/10 12:38:58;;;;;;;45.87;31.10;;;3.00;99.90;;;;;;5068595;28;20448;-91
2023/03/10 12:41:27;;;;;;;42.92;30.00;;;3.00;99.90;;;;;;5069359;28;20908;-91
2023/03/10 12:44:15;;;;;;;43.53;30.10;;;3.00;99.90;;;;;;5069178;28;20402;-91